sensor_id;sensor_type;location;lat;lon;timestamp;temperature;humidity
15231;DHT22;32569;51.762;8.564;2024-02-23T00:01:17;9.20;99.90
15231;DHT22;32569;51.762;8.564;2024-02-23T00:03:44;9.20;99.30
15231;DHT22;32569;51.762;8.564;2024-02-23T00:06:12;9.20;99.30
15231;DHT22;32569;51.762;8.564;2024-02-23T00:08:46;9.00;99.20
15231;DHT22;32569;51.762;8.564;2024-02-23T00:11:12;8.90;99.60
15231;DHT22;32569;51.762;8.564;2024-02-23T00:13:39;8.90;99.60
15231;DHT22;32569;51.762;8.564;2024-02-23T00:16:06;8.70;99.70
15231;DHT22;32569;51.762;8.564;2024-02-23T00:18:33;8.70;99.80
15231;DHT22;32569;51.762;8.564;2024-02-23T00:20:59;8.60;99.90
15231;DHT22;32569;51.762;8.564;2024-02-23T00:23:27;8.60;99.90
15231;DHT22;32569;51.762;8.564;2024-02-23T00:25:54;8.60;99.90
15231;DHT22;32569;51.762;8.564;2024-02-23T00:28:21;8.50;99.90
15231;DHT22;32569;51.762;8.564;2024-02-23T00:30:48;8.40;99.90
15231;DHT22;32569;51.762;8.564;2024-02-23T00:33:14;8.30;99.90
15231;DHT22;32569;51.762;8.564;2024-02-23T00:35:41;8.20;99.90
15231;DHT22;32569;51.762;8.564;2024-02-23T00:38:10;8.10;99.90
15231;DHT22;32569;51.762;8.564;2024-02-23T00:40:38;8.00;99.90
15231;DHT22;32569;51.762;8.564;2024-02-23T00:43:07;8.10;99.90
15231;DHT22;32569;51.762;8.564;2024-02-23T00:45:34;8.00;99.90
15231;DHT22;32569;51.762;8.564;2024-02-23T00:48:01;8.00;99.90
15231;DHT22;32569;51.762;8.564;2024-02-23T00:50:27;7.90;99.90
15231;DHT22;32569;51.762;8.564;2024-02-23T00:52:54;7.80;99.90
15231;DHT22;32569;51.762;8.564;2024-02-23T00:55:20;7.60;99.90
15231;DHT22;32569;51.762;8.564;2024-02-23T00:57:49;7.40;99.90
15231;DHT22;32569;51.762;8.564;2024-02-23T01:00:16;7.10;99.90
15231;DHT22;32569;51.762;8.564;2024-02-23T01:02:43;6.90;99.90
15231;DHT22;32569;51.762;8.564;2024-02-23T01:05:09;6.70;99.90
15231;DHT22;32569;51.762;8.564;2024-02-23T01:07:36;6.60;99.90
15231;DHT22;32569;51.762;8.564;2024-02-23T01:10:03;6.60;99.90
15231;DHT22;32569;51.762;8.564;2024-02-23T01:12:30;6.60;99.90
15231;DHT22;32569;51.762;8.564;2024-02-23T01:14:58;6.60;99.90
15231;DHT22;32569;51.762;8.564;2024-02-23T01:17:28;6.60;99.90
15231;DHT22;32569;51.762;8.564;2024-02-23T01:19:54;6.60;99.90
15231;DHT22;32569;51.762;8.564;2024-02-23T01:22:21;6.50;99.90
15231;DHT22;32569;51.762;8.564;2024-02-23T01:24:47;6.50;99.90
15231;DHT22;32569;51.762;8.564;2024-02-23T01:27:14;6.50;99.90
15231;DHT22;32569;51.762;8.564;2024-02-23T01:29:41;6.50;99.90
15231;DHT22;32569;51.762;8.564;2024-02-23T01:32:12;6.50;99.90
15231;DHT22;32569;51.762;8.564;2024-02-23T01:34:38;6.50;99.90
15231;DHT22;32569;51.762;8.564;2024-02-23T01:37:05;6.50;99.90
15231;DHT22;32569;51.762;8.564;2024-02-23T01:39:32;6.50;99.90
15231;DHT22;32569;51.762;8.564;2024-02-23T01:41:58;6.40;99.90
15231;DHT22;32569;51.762;8.564;2024-02-23T01:44:25;6.30;99.90
15231;DHT22;32569;51.762;8.564;2024-02-23T01:46:52;6.30;99.90
15231;DHT22;32569;51.762;8.564;2024-02-23T01:49:20;6.30;99.90
15231;DHT22;32569;51.762;8.564;2024-02-23T01:51:47;6.30;99.90
15231;DHT22;32569;51.762;8.564;2024-02-23T01:54:18;6.20;99.90
15231;DHT22;32569;51.762;8.564;2024-02-23T01:56:47;6.20;99.90
15231;DHT22;32569;51.762;8.564;2024-02-23T01:59:14;6.20;99.90
15231;DHT22;32569;51.762;8.564;2024-02-23T02:01:43;6.30;99.90
15231;DHT22;32569;51.762;8.564;2024-02-23T02:04:09;6.20;99.90
15231;DHT22;32569;51.762;8.564;2024-02-23T02:06:40;6.20;99.90
15231;DHT22;32569;51.762;8.564;2024-02-23T02:09:08;6.10;99.90
15231;DHT22;32569;51.762;8.564;2024-02-23T02:11:34;6.10;99.90
15231;DHT22;32569;51.762;8.564;2024-02-23T02:14:04;6.00;99.90
15231;DHT22;32569;51.762;8.564;2024-02-23T02:16:31;6.10;99.90
15231;DHT22;32569;51.762;8.564;2024-02-23T02:18:57;6.10;99.90
15231;DHT22;32569;51.762;8.564;2024-02-23T02:21:24;6.10;99.90
15231;DHT22;32569;51.762;8.564;2024-02-23T02:23:52;6.10;99.90
15231;DHT22;32569;51.762;8.564;2024-02-23T02:26:19;6.20;99.90
15231;DHT22;32569;51.762;8.564;2024-02-23T02:28:45;6.10;99.90
15231;DHT22;32569;51.762;8.564;2024-02-23T02:31:12;6.10;99.90
15231;DHT22;32569;51.762;8.564;2024-02-23T02:33:40;6.10;99.90
15231;DHT22;32569;51.762;8.564;2024-02-23T02:36:06;6.10;99.90
15231;DHT22;32569;51.762;8.564;2024-02-23T02:38:33;6.10;99.90
15231;DHT22;32569;51.762;8.564;2024-02-23T02:41:01;6.10;99.90
15231;DHT22;32569;51.762;8.564;2024-02-23T02:43:28;6.20;99.90
15231;DHT22;32569;51.762;8.564;2024-02-23T02:45:57;6.20;99.90
15231;DHT22;32569;51.762;8.564;2024-02-23T02:48:24;6.30;99.90
15231;DHT22;32569;51.762;8.564;2024-02-23T02:50:51;6.30;99.90
15231;DHT22;32569;51.762;8.564;2024-02-23T02:53:18;6.30;99.90
15231;DHT22;32569;51.762;8.564;2024-02-23T02:55:45;6.40;99.90
15231;DHT22;32569;51.762;8.564;2024-02-23T02:58:13;6.30;99.90
15231;DHT22;32569;51.762;8.564;2024-02-23T03:00:40;6.40;99.90
15231;DHT22;32569;51.762;8.564;2024-02-23T03:03:07;6.30;99.90
15231;DHT22;32569;51.762;8.564;2024-02-23T03:05:34;6.20;99.90
15231;DHT22;32569;51.762;8.564;2024-02-23T03:08:00;6.20;99.90
15231;DHT22;32569;51.762;8.564;2024-02-23T03:10:27;6.30;99.90
15231;DHT22;32569;51.762;8.564;2024-02-23T03:12:53;6.30;99.90
15231;DHT22;32569;51.762;8.564;2024-02-23T03:15:21;6.40;99.90
15231;DHT22;32569;51.762;8.564;2024-02-23T03:17:48;6.40;99.90
15231;DHT22;32569;51.762;8.564;2024-02-23T03:20:15;6.40;99.90
15231;DHT22;32569;51.762;8.564;2024-02-23T03:22:42;6.50;99.90
15231;DHT22;32569;51.762;8.564;2024-02-23T03:25:09;6.50;99.90
15231;DHT22;32569;51.762;8.564;2024-02-23T03:27:36;6.60;99.90
15231;DHT22;32569;51.762;8.564;2024-02-23T03:30:04;6.60;99.90
15231;DHT22;32569;51.762;8.564;2024-02-23T03:32:32;6.60;99.90
15231;DHT22;32569;51.762;8.564;2024-02-23T03:35:02;6.60;99.90
15231;DHT22;32569;51.762;8.564;2024-02-23T03:37:29;6.60;99.90
15231;DHT22;32569;51.762;8.564;2024-02-23T03:39:55;6.60;99.90
15231;DHT22;32569;51.762;8.564;2024-02-23T03:42:22;6.60;99.90
15231;DHT22;32569;51.762;8.564;2024-02-23T03:44:49;6.60;99.90
15231;DHT22;32569;51.762;8.564;2024-02-23T03:47:16;6.50;99.90
15231;DHT22;32569;51.762;8.564;2024-02-23T03:49:44;6.50;99.90
15231;DHT22;32569;51.762;8.564;2024-02-23T03:52:10;6.50;99.90
15231;DHT22;32569;51.762;8.564;2024-02-23T03:54:37;6.40;99.90
15231;DHT22;32569;51.762;8.564;2024-02-23T03:57:04;6.50;99.90
15231;DHT22;32569;51.762;8.564;2024-02-23T03:59:30;6.50;99.90
15231;DHT22;32569;51.762;8.564;2024-02-23T04:01:57;6.50;99.90
15231;DHT22;32569;51.762;8.564;2024-02-23T04:04:24;6.50;99.90
15231;DHT22;32569;51.762;8.564;2024-02-23T04:06:52;6.50;99.90
15231;DHT22;32569;51.762;8.564;2024-02-23T04:09:18;6.40;99.90
15231;DHT22;32569;51.762;8.564;2024-02-23T04:11:47;6.40;99.90
15231;DHT22;32569;51.762;8.564;2024-02-23T04:14:16;6.40;99.90
15231;DHT22;32569;51.762;8.564;2024-02-23T04:16:45;6.50;99.90
15231;DHT22;32569;51.762;8.564;2024-02-23T04:19:12;6.40;99.90
15231;DHT22;32569;51.762;8.564;2024-02-23T04:21:38;6.40;99.90
15231;DHT22;32569;51.762;8.564;2024-02-23T04:24:07;6.50;99.90
15231;DHT22;32569;51.762;8.564;2024-02-23T04:26:34;6.40;99.90
15231;DHT22;32569;51.762;8.564;2024-02-23T04:29:03;6.30;99.90
15231;DHT22;32569;51.762;8.564;2024-02-23T04:31:33;6.30;99.90
15231;DHT22;32569;51.762;8.564;2024-02-23T04:34:02;6.20;99.90
15231;DHT22;32569;51.762;8.564;2024-02-23T04:36:29;6.20;99.90
15231;DHT22;32569;51.762;8.564;2024-02-23T04:39:00;6.10;99.90
15231;DHT22;32569;51.762;8.564;2024-02-23T04:41:29;6.10;99.90
15231;DHT22;32569;51.762;8.564;2024-02-23T04:43:56;6.10;99.90
15231;DHT22;32569;51.762;8.564;2024-02-23T04:46:25;6.10;99.90
15231;DHT22;32569;51.762;8.564;2024-02-23T04:48:52;6.10;99.90
15231;DHT22;32569;51.762;8.564;2024-02-23T04:51:18;6.10;99.90
15231;DHT22;32569;51.762;8.564;2024-02-23T04:53:48;6.20;99.90
15231;DHT22;32569;51.762;8.564;2024-02-23T04:56:14;6.20;99.90
15231;DHT22;32569;51.762;8.564;2024-02-23T04:58:43;6.30;99.90
15231;DHT22;32569;51.762;8.564;2024-02-23T05:01:09;6.30;99.90
15231;DHT22;32569;51.762;8.564;2024-02-23T05:03:37;6.30;99.90
15231;DHT22;32569;51.762;8.564;2024-02-23T05:06:04;6.30;99.90
15231;DHT22;32569;51.762;8.564;2024-02-23T05:08:31;6.40;99.90
15231;DHT22;32569;51.762;8.564;2024-02-23T05:10:57;6.30;99.90
15231;DHT22;32569;51.762;8.564;2024-02-23T05:13:24;6.30;99.90
15231;DHT22;32569;51.762;8.564;2024-02-23T05:15:55;6.30;99.90
15231;DHT22;32569;51.762;8.564;2024-02-23T05:18:22;6.30;99.90
15231;DHT22;32569;51.762;8.564;2024-02-23T05:20:49;6.30;99.90
15231;DHT22;32569;51.762;8.564;2024-02-23T05:23:15;6.20;99.90
15231;DHT22;32569;51.762;8.564;2024-02-23T05:25:42;6.30;99.90
15231;DHT22;32569;51.762;8.564;2024-02-23T05:28:09;6.40;99.90
15231;DHT22;32569;51.762;8.564;2024-02-23T05:30:36;6.40;99.90
15231;DHT22;32569;51.762;8.564;2024-02-23T05:33:04;6.40;99.90
15231;DHT22;32569;51.762;8.564;2024-02-23T05:35:34;6.40;99.90
15231;DHT22;32569;51.762;8.564;2024-02-23T05:38:00;6.40;99.90
15231;DHT22;32569;51.762;8.564;2024-02-23T05:40:27;6.50;99.90
15231;DHT22;32569;51.762;8.564;2024-02-23T05:42:54;6.50;99.90
15231;DHT22;32569;51.762;8.564;2024-02-23T05:45:21;6.50;99.90
15231;DHT22;32569;51.762;8.564;2024-02-23T05:47:48;6.50;99.90
15231;DHT22;32569;51.762;8.564;2024-02-23T05:50:16;6.50;99.90
15231;DHT22;32569;51.762;8.564;2024-02-23T05:52:42;6.50;99.90
15231;DHT22;32569;51.762;8.564;2024-02-23T05:55:09;6.50;99.90
15231;DHT22;32569;51.762;8.564;2024-02-23T05:57:36;6.50;99.90
15231;DHT22;32569;51.762;8.564;2024-02-23T06:00:03;6.50;99.90
15231;DHT22;32569;51.762;8.564;2024-02-23T06:02:30;6.50;99.90
15231;DHT22;32569;51.762;8.564;2024-02-23T06:04:57;6.50;99.90
15231;DHT22;32569;51.762;8.564;2024-02-23T06:07:25;6.50;99.90
15231;DHT22;32569;51.762;8.564;2024-02-23T06:09:54;6.50;99.90
15231;DHT22;32569;51.762;8.564;2024-02-23T06:12:21;6.40;99.90
15231;DHT22;32569;51.762;8.564;2024-02-23T06:14:48;6.40;99.90
15231;DHT22;32569;51.762;8.564;2024-02-23T06:17:14;6.40;99.90
15231;DHT22;32569;51.762;8.564;2024-02-23T06:19:41;6.40;99.90
15231;DHT22;32569;51.762;8.564;2024-02-23T06:22:08;6.40;99.90
15231;DHT22;32569;51.762;8.564;2024-02-23T06:24:36;6.50;99.90
15231;DHT22;32569;51.762;8.564;2024-02-23T06:27:03;6.40;99.90
15231;DHT22;32569;51.762;8.564;2024-02-23T06:29:30;6.40;99.90
15231;DHT22;32569;51.762;8.564;2024-02-23T06:31:57;6.40;99.90
15231;DHT22;32569;51.762;8.564;2024-02-23T06:34:23;6.50;99.90
15231;DHT22;32569;51.762;8.564;2024-02-23T06:36:50;6.40;99.90
15231;DHT22;32569;51.762;8.564;2024-02-23T06:39:17;6.40;99.90
15231;DHT22;32569;51.762;8.564;2024-02-23T06:41:46;6.40;99.90
15231;DHT22;32569;51.762;8.564;2024-02-23T06:44:13;6.40;99.90
15231;DHT22;32569;51.762;8.564;2024-02-23T06:46:40;6.50;99.90
15231;DHT22;32569;51.762;8.564;2024-02-23T06:49:07;6.50;99.90
15231;DHT22;32569;51.762;8.564;2024-02-23T06:51:33;6.40;99.90
15231;DHT22;32569;51.762;8.564;2024-02-23T06:54:00;6.40;99.90
15231;DHT22;32569;51.762;8.564;2024-02-23T06:56:29;6.40;99.90
15231;DHT22;32569;51.762;8.564;2024-02-23T06:58:57;6.50;99.90
15231;DHT22;32569;51.762;8.564;2024-02-23T07:01:23;6.50;99.90
15231;DHT22;32569;51.762;8.564;2024-02-23T07:03:50;6.50;99.90
15231;DHT22;32569;51.762;8.564;2024-02-23T07:06:17;6.40;99.90
15231;DHT22;32569;51.762;8.564;2024-02-23T07:08:43;6.40;99.90
15231;DHT22;32569;51.762;8.564;2024-02-23T07:11:11;6.30;99.90
15231;DHT22;32569;51.762;8.564;2024-02-23T07:13:37;6.30;99.90
15231;DHT22;32569;51.762;8.564;2024-02-23T07:16:06;6.20;99.90
15231;DHT22;32569;51.762;8.564;2024-02-23T07:18:34;6.20;99.90
15231;DHT22;32569;51.762;8.564;2024-02-23T07:21:01;6.20;99.90
15231;DHT22;32569;51.762;8.564;2024-02-23T07:23:27;6.10;99.90
15231;DHT22;32569;51.762;8.564;2024-02-23T07:25:54;6.10;99.90
15231;DHT22;32569;51.762;8.564;2024-02-23T07:28:21;6.10;99.90
15231;DHT22;32569;51.762;8.564;2024-02-23T07:30:48;6.20;99.90
15231;DHT22;32569;51.762;8.564;2024-02-23T07:33:16;6.10;99.90
15231;DHT22;32569;51.762;8.564;2024-02-23T07:35:43;6.20;99.90
15231;DHT22;32569;51.762;8.564;2024-02-23T07:38:09;6.20;99.90
15231;DHT22;32569;51.762;8.564;2024-02-23T07:40:36;6.20;99.90
15231;DHT22;32569;51.762;8.564;2024-02-23T07:43:03;6.20;99.90
15231;DHT22;32569;51.762;8.564;2024-02-23T07:45:30;6.20;99.90
15231;DHT22;32569;51.762;8.564;2024-02-23T07:47:58;6.20;99.90
15231;DHT22;32569;51.762;8.564;2024-02-23T07:50:27;6.30;99.90
15231;DHT22;32569;51.762;8.564;2024-02-23T07:52:53;6.30;99.90
15231;DHT22;32569;51.762;8.564;2024-02-23T07:55:20;6.30;99.90
15231;DHT22;32569;51.762;8.564;2024-02-23T07:57:47;6.40;99.90
15231;DHT22;32569;51.762;8.564;2024-02-23T08:00:14;6.40;99.90
15231;DHT22;32569;51.762;8.564;2024-02-23T08:02:41;6.30;99.90
15231;DHT22;32569;51.762;8.564;2024-02-23T08:05:08;6.50;99.90
15231;DHT22;32569;51.762;8.564;2024-02-23T08:07:36;6.60;99.90
15231;DHT22;32569;51.762;8.564;2024-02-23T08:10:03;6.70;99.90
15231;DHT22;32569;51.762;8.564;2024-02-23T08:12:30;6.80;99.90
15231;DHT22;32569;51.762;8.564;2024-02-23T08:14:57;6.80;99.90
15231;DHT22;32569;51.762;8.564;2024-02-23T08:17:23;6.80;99.90
15231;DHT22;32569;51.762;8.564;2024-02-23T08:19:50;6.80;99.90
15231;DHT22;32569;51.762;8.564;2024-02-23T08:22:17;6.90;99.90
15231;DHT22;32569;51.762;8.564;2024-02-23T08:24:45;6.80;99.90
15231;DHT22;32569;51.762;8.564;2024-02-23T08:27:12;6.80;99.90
15231;DHT22;32569;51.762;8.564;2024-02-23T08:29:38;6.90;99.90
15231;DHT22;32569;51.762;8.564;2024-02-23T08:32:05;7.10;99.90
15231;DHT22;32569;51.762;8.564;2024-02-23T08:34:32;7.20;99.90
15231;DHT22;32569;51.762;8.564;2024-02-23T08:36:59;7.30;99.90
15231;DHT22;32569;51.762;8.564;2024-02-23T08:39:26;7.30;99.90
15231;DHT22;32569;51.762;8.564;2024-02-23T08:41:55;7.40;99.90
15231;DHT22;32569;51.762;8.564;2024-02-23T08:44:22;7.40;99.90
15231;DHT22;32569;51.762;8.564;2024-02-23T08:46:48;7.40;99.90
15231;DHT22;32569;51.762;8.564;2024-02-23T08:49:15;7.30;99.90
15231;DHT22;32569;51.762;8.564;2024-02-23T08:51:41;7.40;99.90
15231;DHT22;32569;51.762;8.564;2024-02-23T08:54:08;7.40;99.90
15231;DHT22;32569;51.762;8.564;2024-02-23T08:56:39;7.40;99.90
15231;DHT22;32569;51.762;8.564;2024-02-23T08:59:09;7.30;99.90
15231;DHT22;32569;51.762;8.564;2024-02-23T09:01:39;7.30;99.90
15231;DHT22;32569;51.762;8.564;2024-02-23T09:04:05;7.40;99.90
15231;DHT22;32569;51.762;8.564;2024-02-23T09:06:32;7.40;99.90
15231;DHT22;32569;51.762;8.564;2024-02-23T09:08:59;7.60;99.90
15231;DHT22;32569;51.762;8.564;2024-02-23T09:11:26;7.70;99.60
15231;DHT22;32569;51.762;8.564;2024-02-23T09:13:52;7.80;99.40
15231;DHT22;32569;51.762;8.564;2024-02-23T09:16:20;8.00;98.90
15231;DHT22;32569;51.762;8.564;2024-02-23T09:18:50;8.00;99.10
15231;DHT22;32569;51.762;8.564;2024-02-23T09:21:16;8.10;99.40
15231;DHT22;32569;51.762;8.564;2024-02-23T09:23:44;8.10;99.30
15231;DHT22;32569;51.762;8.564;2024-02-23T09:26:11;8.10;99.20
15231;DHT22;32569;51.762;8.564;2024-02-23T09:28:37;8.20;99.10
15231;DHT22;32569;51.762;8.564;2024-02-23T09:31:06;8.20;99.00
15231;DHT22;32569;51.762;8.564;2024-02-23T09:33:34;8.10;98.70
15231;DHT22;32569;51.762;8.564;2024-02-23T09:36:00;8.00;98.80
15231;DHT22;32569;51.762;8.564;2024-02-23T09:38:27;8.10;98.90
15231;DHT22;32569;51.762;8.564;2024-02-23T09:40:54;8.20;99.00
15231;DHT22;32569;51.762;8.564;2024-02-23T09:43:21;8.30;98.90
15231;DHT22;32569;51.762;8.564;2024-02-23T09:45:50;8.30;99.00
15231;DHT22;32569;51.762;8.564;2024-02-23T09:48:18;8.40;98.80
15231;DHT22;32569;51.762;8.564;2024-02-23T09:50:47;8.50;98.60
15231;DHT22;32569;51.762;8.564;2024-02-23T09:53:14;8.60;98.30
15231;DHT22;32569;51.762;8.564;2024-02-23T09:55:42;8.70;97.90
15231;DHT22;32569;51.762;8.564;2024-02-23T09:58:10;8.80;97.70
15231;DHT22;32569;51.762;8.564;2024-02-23T10:00:39;8.80;97.70
15231;DHT22;32569;51.762;8.564;2024-02-23T10:03:06;8.80;97.80
15231;DHT22;32569;51.762;8.564;2024-02-23T10:05:32;8.80;97.70
15231;DHT22;32569;51.762;8.564;2024-02-23T10:08:00;8.80;97.50
15231;DHT22;32569;51.762;8.564;2024-02-23T10:10:29;8.70;97.80
15231;DHT22;32569;51.762;8.564;2024-02-23T10:12:57;8.60;98.10
15231;DHT22;32569;51.762;8.564;2024-02-23T10:15:23;8.70;97.80
15231;DHT22;32569;51.762;8.564;2024-02-23T10:17:50;8.70;97.70
15231;DHT22;32569;51.762;8.564;2024-02-23T10:20:17;8.70;97.90
15231;DHT22;32569;51.762;8.564;2024-02-23T10:22:45;8.70;98.10
15231;DHT22;32569;51.762;8.564;2024-02-23T10:25:13;8.70;97.70
15231;DHT22;32569;51.762;8.564;2024-02-23T10:27:40;8.70;97.80
15231;DHT22;32569;51.762;8.564;2024-02-23T10:30:08;8.60;97.60
15231;DHT22;32569;51.762;8.564;2024-02-23T10:32:38;8.60;97.60
15231;DHT22;32569;51.762;8.564;2024-02-23T10:35:07;8.60;97.50
15231;DHT22;32569;51.762;8.564;2024-02-23T10:37:36;8.60;97.70
15231;DHT22;32569;51.762;8.564;2024-02-23T10:40:04;8.60;97.80
15231;DHT22;32569;51.762;8.564;2024-02-23T10:42:36;8.60;98.10
15231;DHT22;32569;51.762;8.564;2024-02-23T10:45:05;8.70;97.80
15231;DHT22;32569;51.762;8.564;2024-02-23T10:47:33;8.70;98.00
15231;DHT22;32569;51.762;8.564;2024-02-23T10:50:01;8.80;97.30
15231;DHT22;32569;51.762;8.564;2024-02-23T10:52:28;8.90;97.70
15231;DHT22;32569;51.762;8.564;2024-02-23T10:54:55;9.00;97.70
15231;DHT22;32569;51.762;8.564;2024-02-23T10:57:22;9.00;97.10
15231;DHT22;32569;51.762;8.564;2024-02-23T10:59:50;9.00;97.30
15231;DHT22;32569;51.762;8.564;2024-02-23T11:02:19;9.00;97.00
15231;DHT22;32569;51.762;8.564;2024-02-23T11:04:47;9.10;97.10
15231;DHT22;32569;51.762;8.564;2024-02-23T11:07:17;9.10;97.50
15231;DHT22;32569;51.762;8.564;2024-02-23T11:09:48;9.10;97.20
15231;DHT22;32569;51.762;8.564;2024-02-23T11:12:22;9.20;97.30
15231;DHT22;32569;51.762;8.564;2024-02-23T11:14:51;9.20;96.60
15231;DHT22;32569;51.762;8.564;2024-02-23T11:17:18;9.20;96.50
15231;DHT22;32569;51.762;8.564;2024-02-23T11:19:48;9.20;96.80
15231;DHT22;32569;51.762;8.564;2024-02-23T11:22:23;9.30;97.10
15231;DHT22;32569;51.762;8.564;2024-02-23T11:24:50;9.20;97.10
15231;DHT22;32569;51.762;8.564;2024-02-23T11:27:17;9.20;97.20
15231;DHT22;32569;51.762;8.564;2024-02-23T11:29:45;9.20;96.90
15231;DHT22;32569;51.762;8.564;2024-02-23T11:32:14;9.10;96.70
15231;DHT22;32569;51.762;8.564;2024-02-23T11:34:41;9.10;96.80
15231;DHT22;32569;51.762;8.564;2024-02-23T11:37:09;9.00;96.60
15231;DHT22;32569;51.762;8.564;2024-02-23T11:39:37;9.10;97.20
15231;DHT22;32569;51.762;8.564;2024-02-23T11:42:04;9.10;97.00
15231;DHT22;32569;51.762;8.564;2024-02-23T11:44:32;9.20;97.00
15231;DHT22;32569;51.762;8.564;2024-02-23T11:46:59;9.20;96.90
15231;DHT22;32569;51.762;8.564;2024-02-23T11:49:28;9.30;96.80
15231;DHT22;32569;51.762;8.564;2024-02-23T11:51:56;9.20;96.60
15231;DHT22;32569;51.762;8.564;2024-02-23T11:54:23;9.20;96.90
15231;DHT22;32569;51.762;8.564;2024-02-23T11:56:49;9.20;96.80
15231;DHT22;32569;51.762;8.564;2024-02-23T11:59:18;9.10;96.80
15231;DHT22;32569;51.762;8.564;2024-02-23T12:01:46;9.10;97.20
15231;DHT22;32569;51.762;8.564;2024-02-23T12:04:14;9.00;97.20
15231;DHT22;32569;51.762;8.564;2024-02-23T12:06:42;9.00;96.90
15231;DHT22;32569;51.762;8.564;2024-02-23T12:09:09;9.00;97.30
15231;DHT22;32569;51.762;8.564;2024-02-23T12:11:39;9.10;97.10
15231;DHT22;32569;51.762;8.564;2024-02-23T12:14:07;9.20;97.50
15231;DHT22;32569;51.762;8.564;2024-02-23T12:16:34;9.30;97.10
15231;DHT22;32569;51.762;8.564;2024-02-23T12:19:02;9.30;97.10
15231;DHT22;32569;51.762;8.564;2024-02-23T12:21:29;9.40;97.40
15231;DHT22;32569;51.762;8.564;2024-02-23T12:23:57;9.60;97.30
15231;DHT22;32569;51.762;8.564;2024-02-23T12:26:23;9.80;96.80
15231;DHT22;32569;51.762;8.564;2024-02-23T12:29:00;9.80;96.70
15231;DHT22;32569;51.762;8.564;2024-02-23T12:31:27;9.80;96.70
15231;DHT22;32569;51.762;8.564;2024-02-23T12:33:53;9.80;96.30
15231;DHT22;32569;51.762;8.564;2024-02-23T12:36:20;9.80;96.50
15231;DHT22;32569;51.762;8.564;2024-02-23T12:38:47;9.80;96.40
15231;DHT22;32569;51.762;8.564;2024-02-23T12:41:15;9.70;96.60
15231;DHT22;32569;51.762;8.564;2024-02-23T12:43:41;9.60;96.70
15231;DHT22;32569;51.762;8.564;2024-02-23T12:46:11;9.60;97.00
15231;DHT22;32569;51.762;8.564;2024-02-23T12:48:39;9.60;97.00
15231;DHT22;32569;51.762;8.564;2024-02-23T12:51:06;9.60;97.20
15231;DHT22;32569;51.762;8.564;2024-02-23T12:53:34;9.70;97.50
15231;DHT22;32569;51.762;8.564;2024-02-23T12:56:02;9.70;97.20
15231;DHT22;32569;51.762;8.564;2024-02-23T12:58:31;9.70;97.20
15231;DHT22;32569;51.762;8.564;2024-02-23T13:00:57;9.70;96.90
15231;DHT22;32569;51.762;8.564;2024-02-23T13:03:24;9.70;96.30
15231;DHT22;32569;51.762;8.564;2024-02-23T13:05:52;9.70;96.60
15231;DHT22;32569;51.762;8.564;2024-02-23T13:08:19;9.80;96.00
15231;DHT22;32569;51.762;8.564;2024-02-23T13:10:45;9.90;96.30
15231;DHT22;32569;51.762;8.564;2024-02-23T13:13:12;9.90;95.80
15231;DHT22;32569;51.762;8.564;2024-02-23T13:15:41;9.80;95.70
15231;DHT22;32569;51.762;8.564;2024-02-23T13:18:14;9.80;96.10
15231;DHT22;32569;51.762;8.564;2024-02-23T13:20:41;9.90;96.40
15231;DHT22;32569;51.762;8.564;2024-02-23T13:23:08;9.80;96.40
15231;DHT22;32569;51.762;8.564;2024-02-23T13:25:38;9.90;96.10
15231;DHT22;32569;51.762;8.564;2024-02-23T13:28:06;9.90;96.00
15231;DHT22;32569;51.762;8.564;2024-02-23T13:30:33;9.90;96.20
15231;DHT22;32569;51.762;8.564;2024-02-23T13:33:01;9.90;96.40
15231;DHT22;32569;51.762;8.564;2024-02-23T13:35:28;9.90;96.40
15231;DHT22;32569;51.762;8.564;2024-02-23T13:38:01;10.00;96.80
15231;DHT22;32569;51.762;8.564;2024-02-23T13:40:29;10.00;97.10
15231;DHT22;32569;51.762;8.564;2024-02-23T13:42:56;9.90;96.80
15231;DHT22;32569;51.762;8.564;2024-02-23T13:45:22;9.80;96.70
15231;DHT22;32569;51.762;8.564;2024-02-23T13:47:56;9.80;97.00
15231;DHT22;32569;51.762;8.564;2024-02-23T13:50:25;9.80;96.80
15231;DHT22;32569;51.762;8.564;2024-02-23T13:52:51;9.80;97.10
15231;DHT22;32569;51.762;8.564;2024-02-23T13:55:18;9.80;97.10
15231;DHT22;32569;51.762;8.564;2024-02-23T13:57:46;9.80;96.90
15231;DHT22;32569;51.762;8.564;2024-02-23T14:00:14;9.80;96.90
15231;DHT22;32569;51.762;8.564;2024-02-23T14:02:40;9.70;97.10
15231;DHT22;32569;51.762;8.564;2024-02-23T14:05:07;9.50;96.90
15231;DHT22;32569;51.762;8.564;2024-02-23T14:07:35;9.50;97.40
15231;DHT22;32569;51.762;8.564;2024-02-23T14:10:03;9.50;97.60
15231;DHT22;32569;51.762;8.564;2024-02-23T14:12:29;9.50;97.70
15231;DHT22;32569;51.762;8.564;2024-02-23T14:14:56;9.50;97.70
15231;DHT22;32569;51.762;8.564;2024-02-23T14:17:23;9.40;98.00
15231;DHT22;32569;51.762;8.564;2024-02-23T14:19:50;9.40;98.20
15231;DHT22;32569;51.762;8.564;2024-02-23T14:22:17;9.40;98.30
15231;DHT22;32569;51.762;8.564;2024-02-23T14:24:45;9.40;98.20
15231;DHT22;32569;51.762;8.564;2024-02-23T14:27:11;9.40;98.30
15231;DHT22;32569;51.762;8.564;2024-02-23T14:29:38;9.30;98.30
15231;DHT22;32569;51.762;8.564;2024-02-23T14:32:05;9.30;98.60
15231;DHT22;32569;51.762;8.564;2024-02-23T14:34:31;9.30;98.80
15231;DHT22;32569;51.762;8.564;2024-02-23T14:36:59;9.40;98.90
15231;DHT22;32569;51.762;8.564;2024-02-23T14:39:25;9.40;98.90
15231;DHT22;32569;51.762;8.564;2024-02-23T14:41:53;9.30;98.90
15231;DHT22;32569;51.762;8.564;2024-02-23T14:44:20;9.40;99.00
15231;DHT22;32569;51.762;8.564;2024-02-23T14:46:47;9.30;99.20
15231;DHT22;32569;51.762;8.564;2024-02-23T14:49:14;9.20;99.40
15231;DHT22;32569;51.762;8.564;2024-02-23T14:51:40;9.20;99.30
15231;DHT22;32569;51.762;8.564;2024-02-23T14:54:08;9.20;99.40
15231;DHT22;32569;51.762;8.564;2024-02-23T14:56:35;9.20;99.10
15231;DHT22;32569;51.762;8.564;2024-02-23T14:59:02;9.20;99.10
15231;DHT22;32569;51.762;8.564;2024-02-23T15:01:29;9.10;98.90
15231;DHT22;32569;51.762;8.564;2024-02-23T15:03:56;9.10;98.70
15231;DHT22;32569;51.762;8.564;2024-02-23T15:06:22;9.20;98.70
15231;DHT22;32569;51.762;8.564;2024-02-23T15:08:49;9.20;98.60
15231;DHT22;32569;51.762;8.564;2024-02-23T15:11:16;9.20;98.60
15231;DHT22;32569;51.762;8.564;2024-02-23T15:13:43;9.30;98.40
15231;DHT22;32569;51.762;8.564;2024-02-23T15:16:11;9.30;98.10
15231;DHT22;32569;51.762;8.564;2024-02-23T15:18:37;9.40;97.70
15231;DHT22;32569;51.762;8.564;2024-02-23T15:21:04;9.40;97.50
15231;DHT22;32569;51.762;8.564;2024-02-23T15:23:31;9.40;97.80
15231;DHT22;32569;51.762;8.564;2024-02-23T15:25:58;9.40;97.70
15231;DHT22;32569;51.762;8.564;2024-02-23T15:28:24;9.40;97.80
15231;DHT22;32569;51.762;8.564;2024-02-23T15:30:51;9.30;97.90
15231;DHT22;32569;51.762;8.564;2024-02-23T15:33:20;9.20;98.30
15231;DHT22;32569;51.762;8.564;2024-02-23T15:35:47;9.20;98.50
15231;DHT22;32569;51.762;8.564;2024-02-23T15:38:14;9.20;98.50
15231;DHT22;32569;51.762;8.564;2024-02-23T15:40:40;9.20;98.40
15231;DHT22;32569;51.762;8.564;2024-02-23T15:43:07;9.10;98.60
15231;DHT22;32569;51.762;8.564;2024-02-23T15:45:34;9.00;98.80